Portada
METAR-TAF:

METAR-TAF

Aeroports :

Greenwood, Mississipí, Estats Units d'Amèrica

latitud: 33-29-33N, longitud: 090-05-01W, altitud: 47 m

Observació

L'informe es va fer fa 26 minuts, a les 20:53 UTC
Vent calma
Temperatura 34°C
Humitat 41%
Pressió 1015 hPa
Visibilitat: 16.1 km
Cel clar

METAR: KGWO 182053Z AUTO 00000KT 10SM CLR 34/19 A2997 RMK AO2 SLP145 T03390194 56013

Hora: 16:19 (21:19 UTC)

Pronòstic

L'informe es va fer fa 3 hores i 59 minuts, a les 17:20 UTC
Pronòstic vàlid del 18 a les 18 UTC al 19 a les 18 UTC
Vent 5 kt del Sud-Est
Visibilitat: 10 km
Núvols disperses a una alçada de 25000 ft
A partir de les 19 a les 1200 UTC
Vent 5 kt del Est
Visibilitat: 10 km
Núvols disperses a una alçada de 7000 ft
xàfecs en les proximitats
A partir de les 19 a les 1300 UTC
Vent 5 kt del Est
Visibilitat: 10 km
Cel ennuvolat a una alçada de 1800 ft
xàfecs en les proximitats

TAF: KGWO 181720Z 1818/1918 14005KT P6SM SCT250 FM191200 09005KT P6SM VCSH SCT070 FM191300 10005KT P6SM VCSH BKN018

Observacions i pronòstics meteorològics de més de 4000 aeroports (METAR i TAF).

Les estacions disponibles són els punts grocs i vermells al mapa.

Posi el ratolí al punt desitjat per veure el nom de l'estació.

Feu clic per veure les observacions i els pronòstics meteorològics.

Per canviar el mapa: feu clic els botons verds amb una creu de color negre per apropar; al botó verd amb un guió per allunyar la imatge; o en les fletxes verdes per a mapes adjacents.


METAR-TAF: